createdAt,value
2022-08-25T00:00:41.920Z,14.50
2022-08-25T00:01:41.811Z,13.90
2022-08-25T00:02:55.589Z,13.70
2022-08-25T00:03:42.780Z,14.00
2022-08-25T00:04:41.781Z,14.20
2022-08-25T00:05:41.928Z,13.60
2022-08-25T00:06:41.843Z,14.00
2022-08-25T00:07:41.835Z,14.30
2022-08-25T00:08:41.733Z,14.20
2022-08-25T00:09:41.720Z,14.50
2022-08-25T00:10:41.793Z,14.20
2022-08-25T00:11:41.773Z,14.90
2022-08-25T00:12:41.774Z,15.30
2022-08-25T00:13:41.677Z,13.80
2022-08-25T00:14:41.691Z,15.00
2022-08-25T00:15:41.769Z,16.10
2022-08-25T00:16:41.695Z,16.60
2022-08-25T00:17:41.697Z,15.80
2022-08-25T00:18:41.622Z,15.70
2022-08-25T00:19:41.622Z,14.90
2022-08-25T00:20:43.306Z,16.00
2022-08-25T00:21:42.547Z,14.70
2022-08-25T00:22:41.547Z,14.70
2022-08-25T00:23:41.544Z,15.50
2022-08-25T00:24:41.555Z,14.40
2022-08-25T00:25:41.505Z,15.70
2022-08-25T00:26:42.516Z,15.70
2022-08-25T00:27:41.569Z,15.60
2022-08-25T00:28:41.471Z,16.20
2022-08-25T00:29:41.475Z,15.50
2022-08-25T00:30:41.533Z,15.30
2022-08-25T00:31:41.567Z,15.80
2022-08-25T00:32:42.428Z,17.80
2022-08-25T00:33:42.436Z,14.90
2022-08-25T00:34:41.417Z,16.40
2022-08-25T00:35:41.368Z,15.00
2022-08-25T00:36:41.429Z,20.40
2022-08-25T00:37:42.366Z,15.00
2022-08-25T00:38:42.368Z,16.00
2022-08-25T00:39:41.349Z,15.80
2022-08-25T00:40:41.347Z,15.80
2022-08-25T00:41:41.359Z,16.80
2022-08-25T00:42:41.380Z,17.60
2022-08-25T00:43:41.379Z,16.30
2022-08-25T00:44:42.301Z,16.60
2022-08-25T00:45:41.319Z,16.00
2022-08-25T00:46:41.436Z,15.30
2022-08-25T00:47:41.305Z,16.00
2022-08-25T00:48:41.313Z,15.30
2022-08-25T00:49:41.221Z,18.20
2022-08-25T00:50:44.424Z,15.00
2022-08-25T00:51:41.231Z,14.50
2022-08-25T00:52:41.234Z,15.90
2022-08-25T00:53:41.261Z,16.20
2022-08-25T00:54:41.144Z,16.90
2022-08-25T00:55:41.191Z,16.40
2022-08-25T00:56:41.162Z,15.20
2022-08-25T00:57:41.170Z,15.30
2022-08-25T00:58:41.194Z,17.20
2022-08-25T00:59:41.073Z,16.00
2022-08-25T01:00:41.070Z,16.40
2022-08-25T01:01:41.089Z,17.00
2022-08-25T01:02:41.195Z,16.70
2022-08-25T01:03:41.103Z,18.20
2022-08-25T01:04:43.726Z,17.40
2022-08-25T01:05:42.065Z,16.80
2022-08-25T01:06:40.984Z,16.50
2022-08-25T01:07:40.963Z,16.20
2022-08-25T01:08:40.955Z,15.40
2022-08-25T01:09:40.926Z,16.20
2022-08-25T01:10:40.963Z,15.40
2022-08-25T01:11:40.916Z,15.30
2022-08-25T01:12:40.976Z,16.70
2022-08-25T01:13:40.975Z,17.20
2022-08-25T01:14:41.910Z,16.60
2022-08-25T01:15:40.988Z,18.60
2022-08-25T01:16:40.854Z,15.20
2022-08-25T01:17:40.900Z,16.50
2022-08-25T01:18:40.908Z,15.70
2022-08-25T01:19:40.811Z,15.90
2022-08-25T01:20:40.797Z,16.50
2022-08-25T01:21:40.777Z,16.30
2022-08-25T01:22:40.836Z,16.10
2022-08-25T01:23:40.846Z,15.30
2022-08-25T01:24:40.767Z,16.40
2022-08-25T01:25:40.740Z,17.60
2022-08-25T01:26:40.764Z,16.60
2022-08-25T01:27:40.769Z,15.50
2022-08-25T01:28:40.769Z,16.10
2022-08-25T01:29:40.679Z,15.30
2022-08-25T01:30:43.921Z,15.50
2022-08-25T01:31:40.681Z,16.00
2022-08-25T01:32:40.659Z,18.70
2022-08-25T01:33:40.710Z,16.10
2022-08-25T01:34:40.700Z,15.50
2022-08-25T01:35:40.640Z,16.80
2022-08-25T01:37:01.599Z,16.80
2022-08-25T01:37:40.589Z,16.30
2022-08-25T01:38:40.646Z,15.10
2022-08-25T01:39:40.634Z,16.50
2022-08-25T01:40:40.593Z,15.30
2022-08-25T01:41:40.540Z,16.00
2022-08-25T01:42:42.632Z,16.50
2022-08-25T01:43:40.568Z,17.60
2022-08-25T01:44:40.581Z,16.10
2022-08-25T01:45:40.510Z,16.50
2022-08-25T01:46:40.502Z,17.40
2022-08-25T01:47:40.452Z,16.20
2022-08-25T01:48:40.491Z,17.20
2022-08-25T01:49:40.504Z,16.60
2022-08-25T01:50:40.484Z,17.60
2022-08-25T01:51:40.426Z,16.70
2022-08-25T01:52:40.392Z,18.70
2022-08-25T01:53:42.392Z,15.40
2022-08-25T01:54:40.447Z,18.30
2022-08-25T01:55:40.383Z,18.80
2022-08-25T01:56:40.343Z,18.50
2022-08-25T01:57:40.323Z,17.40
2022-08-25T01:58:40.376Z,17.90
2022-08-25T01:59:40.283Z,17.50
2022-08-25T02:00:40.294Z,16.30
2022-08-25T02:01:40.324Z,16.20
2022-08-25T02:02:42.601Z,16.40
2022-08-25T02:03:42.030Z,16.50
2022-08-25T02:04:40.781Z,17.40
2022-08-25T02:05:40.236Z,18.00
2022-08-25T02:06:41.252Z,16.70
2022-08-25T02:07:40.216Z,16.00
2022-08-25T02:08:40.238Z,18.60
2022-08-25T02:09:40.239Z,18.70
2022-08-25T02:10:40.268Z,17.70
2022-08-25T02:11:41.167Z,19.00
2022-08-25T02:12:40.126Z,18.90
2022-08-25T02:13:41.176Z,17.70
2022-08-25T02:14:40.173Z,18.10
2022-08-25T02:15:41.140Z,16.70
2022-08-25T02:17:50.281Z,18.50
2022-08-25T02:21:08.983Z,19.90
2022-08-25T02:22:34.997Z,19.10
2022-08-25T02:23:16.456Z,21.70
2022-08-25T02:24:08.935Z,18.10
2022-08-25T02:26:10.180Z,18.40
2022-08-25T02:27:17.661Z,18.80
2022-08-25T02:28:10.145Z,20.10
2022-08-25T02:29:17.627Z,19.30
2022-08-25T02:30:18.814Z,19.70
2022-08-25T02:31:31.164Z,17.50
2022-08-25T02:32:10.094Z,20.40
2022-08-25T02:34:26.951Z,19.00
2022-08-25T02:35:27.031Z,19.30
2022-08-25T02:36:27.921Z,19.90
2022-08-25T02:38:37.136Z,20.00
2022-08-25T02:39:37.127Z,18.40
2022-08-25T02:40:37.194Z,19.10
2022-08-25T02:41:37.167Z,19.80
2022-08-25T02:44:58.749Z,15.10
2022-08-25T02:46:17.087Z,16.20
2022-08-25T02:46:58.809Z,15.40
2022-08-25T02:47:58.729Z,16.60
2022-08-25T02:48:58.741Z,17.20
2022-08-25T02:50:24.980Z,17.00
2022-08-25T02:50:58.674Z,17.10
2022-08-25T02:51:58.861Z,17.10
2022-08-25T02:53:06.161Z,17.50
2022-08-25T02:53:58.660Z,18.40
2022-08-25T02:54:58.721Z,19.80
2022-08-25T02:55:58.782Z,21.30
2022-08-25T02:56:58.681Z,18.30
2022-08-25T02:57:58.601Z,19.10
2022-08-25T02:58:58.611Z,19.90
2022-08-25T02:59:58.620Z,20.60
2022-08-25T03:00:58.689Z,24.40
2022-08-25T03:02:20.543Z,23.10
2022-08-25T03:04:09.732Z,22.10
2022-08-25T03:05:09.842Z,24.10
2022-08-25T03:06:10.742Z,19.80
2022-08-25T03:07:09.713Z,24.90
2022-08-25T03:08:31.743Z,21.80
2022-08-25T03:09:17.176Z,24.30
2022-08-25T03:10:18.344Z,19.40
2022-08-25T03:12:19.886Z,21.50
2022-08-25T03:13:27.412Z,20.70
2022-08-25T03:15:30.531Z,16.70
2022-08-25T03:16:30.193Z,17.20
2022-08-25T03:17:29.142Z,18.50
2022-08-25T03:18:52.803Z,17.80
2022-08-25T03:19:29.121Z,17.80
2022-08-25T03:20:33.294Z,19.30
2022-08-25T03:21:29.079Z,18.30
2022-08-25T03:22:29.063Z,18.60
2022-08-25T03:23:30.118Z,19.10
2022-08-25T03:24:29.084Z,17.80
2022-08-25T03:25:29.035Z,19.30
2022-08-25T03:26:51.024Z,20.30
2022-08-25T03:27:29.015Z,18.70
2022-08-25T03:28:30.131Z,18.40
2022-08-25T03:29:29.033Z,17.80
2022-08-25T03:30:28.965Z,20.40
2022-08-25T03:31:29.081Z,18.90
2022-08-25T03:32:28.947Z,17.40
2022-08-25T03:33:28.954Z,17.30
2022-08-25T03:34:28.899Z,15.50
2022-08-25T03:35:29.015Z,14.80
2022-08-25T03:36:28.874Z,14.50
2022-08-25T03:37:28.854Z,14.60
2022-08-25T03:38:28.888Z,14.20
2022-08-25T03:39:28.897Z,16.00
2022-08-25T03:40:30.285Z,16.30
2022-08-25T03:41:29.121Z,18.50
2022-08-25T03:42:28.916Z,17.80
2022-08-25T03:44:39.014Z,18.40
2022-08-25T03:45:39.044Z,18.40
2022-08-25T03:46:38.997Z,19.30
2022-08-25T03:47:38.964Z,18.00
2022-08-25T03:48:38.965Z,17.10
2022-08-25T03:49:38.946Z,20.80
2022-08-25T04:03:32.688Z,18.60
2022-08-25T04:04:32.681Z,20.20
2022-08-25T04:05:32.972Z,20.10
2022-08-25T04:06:32.651Z,19.30
2022-08-25T04:07:32.648Z,18.70
2022-08-25T04:08:32.631Z,17.50
2022-08-25T04:09:36.426Z,17.00
2022-08-25T04:10:32.619Z,20.20
2022-08-25T04:11:32.579Z,20.40
2022-08-25T04:12:32.569Z,20.40
2022-08-25T04:13:32.572Z,18.40
2022-08-25T04:14:32.550Z,18.80
2022-08-25T04:15:32.533Z,19.60
2022-08-25T04:16:32.578Z,19.80
2022-08-25T04:17:32.521Z,18.10
2022-08-25T04:18:32.503Z,19.90
2022-08-25T04:19:32.482Z,19.80
2022-08-25T04:20:32.472Z,20.30
2022-08-25T04:21:32.465Z,20.00
2022-08-25T04:22:32.452Z,19.60
2022-08-25T04:23:32.438Z,19.70
2022-08-25T04:24:32.411Z,19.70
2022-08-25T04:25:32.421Z,21.20
2022-08-25T04:26:32.382Z,20.70
2022-08-25T04:27:32.392Z,20.50
2022-08-25T04:28:32.350Z,18.80
2022-08-25T04:29:32.373Z,21.30
2022-08-25T04:30:32.340Z,21.10
2022-08-25T04:31:32.370Z,19.40
2022-08-25T04:32:32.312Z,20.20
2022-08-25T04:33:32.303Z,19.90
2022-08-25T04:34:32.281Z,20.20
2022-08-25T04:35:32.285Z,18.50
2022-08-25T04:36:32.254Z,19.20
2022-08-25T04:37:32.253Z,18.60
2022-08-25T04:38:32.235Z,21.40
2022-08-25T04:39:32.217Z,20.80
2022-08-25T04:40:32.258Z,22.20
2022-08-25T04:41:32.212Z,19.20
2022-08-25T04:42:32.186Z,22.10
2022-08-25T04:43:32.164Z,21.00
2022-08-25T04:44:32.159Z,19.20
2022-08-25T04:45:32.209Z,16.90
2022-08-25T04:46:32.107Z,19.30
2022-08-25T04:47:32.109Z,22.20
2022-08-25T04:48:32.094Z,19.40
2022-08-25T04:49:32.095Z,18.00
2022-08-25T04:50:32.067Z,20.40
2022-08-25T04:51:32.066Z,20.50
2022-08-25T04:52:32.057Z,19.20
2022-08-25T04:53:32.037Z,21.80
2022-08-25T04:54:37.022Z,17.20
2022-08-25T04:55:33.020Z,24.90
2022-08-25T04:56:31.999Z,22.20
2022-08-25T04:57:31.991Z,23.90
2022-08-25T04:58:31.968Z,23.20
2022-08-25T04:59:31.960Z,23.80
2022-08-25T05:00:31.958Z,25.60
2022-08-25T05:01:31.928Z,24.60
2022-08-25T05:02:31.918Z,27.70
2022-08-25T05:03:31.909Z,30.00
2022-08-25T05:04:31.975Z,26.80
2022-08-25T05:05:31.893Z,24.20
2022-08-25T05:06:31.863Z,28.40
2022-08-25T05:07:31.856Z,27.20
2022-08-25T05:08:31.829Z,22.70
2022-08-25T05:09:32.641Z,24.10
2022-08-25T05:10:31.826Z,20.60
2022-08-25T05:11:31.800Z,22.40
2022-08-25T05:12:31.781Z,20.80
2022-08-25T05:13:31.782Z,23.10
2022-08-25T05:14:31.938Z,19.50
2022-08-25T05:15:31.778Z,20.60
2022-08-25T05:16:31.809Z,18.00
2022-08-25T05:17:31.719Z,20.20
2022-08-25T05:18:31.703Z,21.00
2022-08-25T05:19:31.691Z,19.00
2022-08-25T05:20:31.694Z,16.30
2022-08-25T05:21:31.690Z,17.60
2022-08-25T05:22:31.655Z,17.70
2022-08-25T05:23:31.643Z,18.20
2022-08-25T05:24:31.632Z,18.70
2022-08-25T05:25:31.624Z,20.40
2022-08-25T05:26:31.585Z,21.70
2022-08-25T05:27:31.593Z,20.70
2022-08-25T05:28:31.587Z,20.50
2022-08-25T05:29:31.566Z,21.40
2022-08-25T05:30:31.556Z,20.70
2022-08-25T05:31:31.584Z,20.70
2022-08-25T05:32:31.516Z,21.30
2022-08-25T05:33:32.149Z,20.10
2022-08-25T05:34:31.509Z,20.60
2022-08-25T05:35:31.506Z,22.10
2022-08-25T05:36:31.467Z,21.60
2022-08-25T05:37:31.454Z,19.70
2022-08-25T05:38:31.447Z,15.80
2022-08-25T05:39:31.435Z,19.70
2022-08-25T05:40:31.469Z,16.40
2022-08-25T05:41:31.417Z,18.70
2022-08-25T05:42:31.390Z,17.20
2022-08-25T05:43:31.378Z,19.10
2022-08-25T05:44:31.358Z,21.50
2022-08-25T05:45:31.384Z,20.10
2022-08-25T05:46:31.639Z,20.30
2022-08-25T05:47:31.328Z,21.80
2022-08-25T05:48:31.307Z,22.30
2022-08-25T05:49:31.301Z,23.60
2022-08-25T05:50:31.298Z,22.90
2022-08-25T05:51:31.279Z,20.60
2022-08-25T05:52:31.272Z,20.50
2022-08-25T05:53:31.247Z,21.70
2022-08-25T05:54:31.219Z,23.50
2022-08-25T05:55:31.222Z,21.30
2022-08-25T05:56:31.220Z,20.70
2022-08-25T05:57:31.194Z,22.00
2022-08-25T05:58:31.162Z,21.10
2022-08-25T05:59:31.160Z,22.90
2022-08-25T06:00:31.159Z,20.00
2022-08-25T06:01:31.167Z,21.10
2022-08-25T06:02:31.122Z,31.00
2022-08-25T06:03:31.174Z,27.80
2022-08-25T06:04:31.105Z,23.30
2022-08-25T06:05:31.094Z,21.30
2022-08-25T06:06:31.063Z,22.00
2022-08-25T06:07:31.062Z,20.60
2022-08-25T06:08:31.043Z,19.60
2022-08-25T06:09:31.038Z,20.10
2022-08-25T06:10:31.023Z,20.00
2022-08-25T06:11:31.003Z,22.60
2022-08-25T06:12:30.993Z,20.70
2022-08-25T06:13:30.975Z,18.90
2022-08-25T06:14:30.964Z,18.40
2022-08-25T06:15:30.975Z,19.70
2022-08-25T06:16:31.103Z,19.60
2022-08-25T06:17:30.926Z,20.20
2022-08-25T06:18:30.913Z,17.90
2022-08-25T06:19:30.906Z,19.60
2022-08-25T06:20:30.906Z,18.20
2022-08-25T06:21:30.886Z,17.40
2022-08-25T06:22:30.857Z,18.20
2022-08-25T06:23:30.848Z,17.50
2022-08-25T06:24:30.831Z,17.30
2022-08-25T06:25:30.839Z,16.90
2022-08-25T06:26:30.807Z,16.00
2022-08-25T06:27:30.790Z,15.70
2022-08-25T06:28:30.767Z,17.20
2022-08-25T06:29:30.778Z,15.30
2022-08-25T06:30:30.848Z,16.30
2022-08-25T06:31:30.786Z,18.50
2022-08-25T06:32:30.728Z,13.70
2022-08-25T06:33:30.714Z,12.60
2022-08-25T06:34:30.702Z,12.80
2022-08-25T06:35:30.709Z,15.90
2022-08-25T06:36:31.679Z,15.00
2022-08-25T06:37:30.659Z,15.40
2022-08-25T06:38:30.653Z,14.50
2022-08-25T06:39:30.640Z,12.50
2022-08-25T06:40:30.670Z,17.30
2022-08-25T06:41:36.967Z,15.50
2022-08-25T06:42:31.589Z,17.60
2022-08-25T06:43:30.621Z,20.00
2022-08-25T06:44:30.571Z,20.20
2022-08-25T06:45:30.571Z,13.80
2022-08-25T06:46:35.878Z,14.90
2022-08-25T06:47:31.548Z,13.30
2022-08-25T06:48:30.516Z,13.90
2022-08-25T06:49:35.583Z,11.70
2022-08-25T06:50:31.498Z,12.10
2022-08-25T06:51:30.481Z,12.60
2022-08-25T06:52:30.454Z,12.90
2022-08-25T06:53:30.451Z,13.40
2022-08-25T06:54:30.436Z,12.90
2022-08-25T06:55:30.444Z,12.20
2022-08-25T06:56:30.414Z,13.10
2022-08-25T06:57:30.394Z,12.40
2022-08-25T06:58:30.391Z,13.00
2022-08-25T06:59:32.207Z,12.60
2022-08-25T07:00:31.596Z,13.40
2022-08-25T07:01:30.373Z,12.00
2022-08-25T07:02:30.385Z,12.80
2022-08-25T07:03:31.343Z,12.40
2022-08-25T07:04:30.309Z,12.50
2022-08-25T07:05:45.438Z,12.80
2022-08-25T07:06:31.276Z,12.00
2022-08-25T07:07:42.832Z,12.70
2022-08-25T07:08:31.256Z,12.80
2022-08-25T07:09:30.259Z,13.30
2022-08-25T07:10:30.234Z,12.00
2022-08-25T07:11:30.228Z,13.30
2022-08-25T07:12:30.196Z,12.40
2022-08-25T07:13:30.208Z,11.70
2022-08-25T07:14:30.168Z,11.80
2022-08-25T07:15:30.192Z,12.50
2022-08-25T07:16:30.992Z,12.40
2022-08-25T07:17:30.149Z,12.70
2022-08-25T07:18:30.213Z,11.30
2022-08-25T07:19:30.118Z,12.60
2022-08-25T07:20:31.126Z,11.60
2022-08-25T07:21:33.524Z,12.60
2022-08-25T07:22:31.110Z,12.30
2022-08-25T07:23:30.075Z,12.60
2022-08-25T07:24:30.053Z,12.60
2022-08-25T07:25:30.062Z,14.30
2022-08-25T07:26:38.758Z,16.00
2022-08-25T07:27:31.043Z,12.70
2022-08-25T07:28:30.005Z,20.60
2022-08-25T07:29:32.092Z,15.00
2022-08-25T07:30:29.995Z,17.30
2022-08-25T07:31:30.234Z,17.20
2022-08-25T07:32:29.951Z,14.20
2022-08-25T07:33:29.936Z,13.70
2022-08-25T07:34:29.925Z,17.50
2022-08-25T07:35:37.390Z,16.30
2022-08-25T07:36:30.889Z,14.40
2022-08-25T07:37:47.835Z,13.20
2022-08-25T07:38:30.880Z,13.00
2022-08-25T07:39:29.853Z,15.00
2022-08-25T07:40:30.902Z,14.20
2022-08-25T07:41:29.824Z,11.70
2022-08-25T07:42:29.803Z,11.90
2022-08-25T07:43:29.805Z,13.40
2022-08-25T07:44:29.785Z,12.00
2022-08-25T07:45:29.789Z,14.20
2022-08-25T07:46:30.804Z,13.30
2022-08-25T07:47:29.736Z,11.90
2022-08-25T07:48:29.733Z,15.10
2022-08-25T07:49:36.174Z,11.40
2022-08-25T07:50:30.719Z,13.30
2022-08-25T07:51:30.678Z,11.20
2022-08-25T07:52:29.686Z,13.60
2022-08-25T07:53:29.683Z,11.60
2022-08-25T07:54:34.670Z,11.50
2022-08-25T07:55:30.659Z,14.30
2022-08-25T07:56:29.618Z,13.40
2022-08-25T07:57:29.623Z,11.60
2022-08-25T07:58:29.597Z,11.80
2022-08-25T07:59:29.580Z,11.20
2022-08-25T08:00:29.579Z,13.30
2022-08-25T08:01:29.599Z,11.20
2022-08-25T08:02:29.552Z,11.50
2022-08-25T08:03:45.224Z,10.80
2022-08-25T08:04:30.618Z,10.70
2022-08-25T08:05:29.507Z,11.10
2022-08-25T08:06:29.497Z,12.90
2022-08-25T08:07:43.133Z,10.80
2022-08-25T08:08:30.452Z,12.00
2022-08-25T08:09:29.453Z,11.10
2022-08-25T08:11:30.427Z,11.10
2022-08-25T08:12:29.404Z,12.40
2022-08-25T08:13:29.384Z,13.40
2022-08-25T08:14:29.376Z,11.30
2022-08-25T08:15:30.504Z,12.40
2022-08-25T08:16:29.395Z,10.80
2022-08-25T08:17:29.336Z,11.70
2022-08-25T08:18:29.316Z,11.00
2022-08-25T08:19:29.304Z,11.30
2022-08-25T08:20:30.307Z,11.00
2022-08-25T08:21:30.294Z,10.90
2022-08-25T08:22:29.267Z,10.20
2022-08-25T08:23:29.247Z,11.60
2022-08-25T08:24:43.997Z,10.30
2022-08-25T08:25:30.239Z,10.90
2022-08-25T08:26:48.351Z,10.20
2022-08-25T08:27:31.198Z,10.00
2022-08-25T08:28:29.177Z,12.00
2022-08-25T08:29:29.169Z,10.20
2022-08-25T08:30:29.183Z,11.10
2022-08-25T08:31:29.206Z,10.90
2022-08-25T08:32:40.624Z,11.50
2022-08-25T08:33:30.120Z,17.10
2022-08-25T08:34:29.101Z,12.80
2022-08-25T08:35:30.127Z,14.10
2022-08-25T08:36:29.090Z,11.30
2022-08-25T08:37:29.068Z,10.00
2022-08-25T08:38:29.061Z,39.20
2022-08-25T08:39:29.030Z,83.30
2022-08-25T08:40:29.070Z,57.00
2022-08-25T08:41:29.020Z,22.00
2022-08-25T08:42:29.003Z,20.80
2022-08-25T08:43:33.219Z,15.40
2022-08-25T08:44:28.980Z,12.80
2022-08-25T08:45:28.969Z,16.40
2022-08-25T08:46:29.014Z,10.80
2022-08-25T08:47:28.919Z,16.30
2022-08-25T08:48:29.047Z,15.00
2022-08-25T08:49:28.962Z,11.80
2022-08-25T08:50:32.952Z,10.70
2022-08-25T08:51:33.085Z,11.50
2022-08-25T08:52:28.885Z,10.60
2022-08-25T08:53:28.853Z,12.80
2022-08-25T08:54:30.824Z,10.40
2022-08-25T08:55:28.816Z,14.30
2022-08-25T08:56:30.679Z,10.30
2022-08-25T08:57:28.788Z,12.20
2022-08-25T08:58:28.783Z,12.40
2022-08-25T08:59:30.176Z,11.40
2022-08-25T09:00:28.842Z,15.80
2022-08-25T09:01:28.817Z,9.20
2022-08-25T09:02:49.888Z,9.30
2022-08-25T09:03:29.778Z,10.70
2022-08-25T09:04:28.703Z,10.30
2022-08-25T09:05:29.790Z,11.50
2022-08-25T09:06:28.688Z,9.40
2022-08-25T09:07:28.655Z,13.30
2022-08-25T09:08:28.649Z,9.40
2022-08-25T09:09:28.690Z,9.90
2022-08-25T09:10:28.634Z,9.80
2022-08-25T09:11:28.745Z,10.30
2022-08-25T09:12:28.609Z,8.40
2022-08-25T09:13:28.570Z,10.60
2022-08-25T09:14:30.615Z,9.00
2022-08-25T09:15:28.591Z,11.80
2022-08-25T09:16:34.066Z,8.80
2022-08-25T09:17:29.522Z,9.20
2022-08-25T09:18:28.502Z,8.40
2022-08-25T09:19:28.536Z,8.80
2022-08-25T09:20:29.540Z,8.80
2022-08-25T09:21:28.601Z,8.30
2022-08-25T09:22:35.292Z,8.80
2022-08-25T09:23:29.573Z,9.10
2022-08-25T09:24:28.445Z,9.00
2022-08-25T09:25:48.684Z,8.50
2022-08-25T09:26:29.516Z,9.80
2022-08-25T09:27:28.404Z,12.40
2022-08-25T09:28:28.397Z,8.90
2022-08-25T09:29:28.366Z,8.60
2022-08-25T09:30:28.354Z,8.70
2022-08-25T09:31:29.687Z,10.40
2022-08-25T09:32:31.575Z,11.10
2022-08-25T09:33:28.341Z,9.80
2022-08-25T09:34:28.337Z,9.00
2022-08-25T09:35:28.299Z,9.70
2022-08-25T09:36:28.287Z,8.80
2022-08-25T09:37:28.336Z,9.80
2022-08-25T09:38:28.266Z,9.40
2022-08-25T09:39:28.247Z,9.60
2022-08-25T09:40:28.309Z,10.90
2022-08-25T09:41:28.278Z,9.30
2022-08-25T09:42:28.226Z,9.50
2022-08-25T09:43:28.190Z,9.10
2022-08-25T09:44:28.179Z,9.30
2022-08-25T09:45:28.189Z,11.40
2022-08-25T09:46:28.203Z,9.90
2022-08-25T09:47:28.202Z,9.50
2022-08-25T10:03:49.795Z,10.00
2022-08-25T10:04:49.833Z,10.20
2022-08-25T10:05:52.499Z,8.90
2022-08-25T10:06:50.742Z,10.70
2022-08-25T10:07:51.985Z,10.40
2022-08-25T10:08:49.725Z,12.90
2022-08-25T10:09:49.694Z,10.80
2022-08-25T10:10:49.712Z,9.30
2022-08-25T10:11:50.682Z,9.00
2022-08-25T10:12:51.445Z,9.70
2022-08-25T10:13:49.644Z,10.40
2022-08-25T10:14:49.648Z,8.90
2022-08-25T10:15:50.694Z,8.70
2022-08-25T10:16:50.655Z,8.90
2022-08-25T10:17:49.595Z,9.30
2022-08-25T10:18:49.597Z,9.60
2022-08-25T10:19:49.574Z,10.40
2022-08-25T10:20:49.589Z,9.10
2022-08-25T10:21:50.540Z,10.60
2022-08-25T10:23:00.197Z,8.60
2022-08-25T10:23:50.518Z,9.30
2022-08-25T10:24:49.496Z,9.50
2022-08-25T10:25:57.806Z,9.30
2022-08-25T10:26:50.476Z,8.70
2022-08-25T10:27:49.458Z,8.20
2022-08-25T10:28:49.477Z,9.40
2022-08-25T10:29:49.448Z,9.00
2022-08-25T10:30:50.492Z,8.90
2022-08-25T10:31:49.408Z,8.80
2022-08-25T10:32:49.398Z,8.60
2022-08-25T10:33:50.346Z,9.20
2022-08-25T10:34:51.654Z,8.50
2022-08-25T10:35:49.370Z,8.50
2022-08-25T10:36:49.353Z,8.90
2022-08-25T10:37:49.332Z,8.50
2022-08-25T10:38:49.321Z,8.60
2022-08-25T10:39:55.521Z,9.40
2022-08-25T10:40:50.336Z,8.10
2022-08-25T10:41:49.303Z,8.50
2022-08-25T10:42:49.280Z,8.60
2022-08-25T10:43:49.266Z,10.20
2022-08-25T10:44:49.243Z,9.00
2022-08-25T10:45:49.274Z,9.60
2022-08-25T10:46:49.226Z,9.70
2022-08-25T10:47:49.203Z,8.00
2022-08-25T10:48:49.192Z,8.20
2022-08-25T10:49:49.975Z,8.70
2022-08-25T10:50:49.309Z,8.80
2022-08-25T10:51:51.260Z,8.10
2022-08-25T10:52:49.146Z,8.30
2022-08-25T10:53:49.185Z,9.20
2022-08-25T10:54:49.190Z,8.70
2022-08-25T10:55:49.105Z,9.50
2022-08-25T10:56:49.101Z,8.50
2022-08-25T10:57:49.078Z,10.80
2022-08-25T10:58:49.101Z,10.20
2022-08-25T10:59:49.059Z,9.50
2022-08-25T11:00:49.028Z,12.40
2022-08-25T11:01:53.461Z,8.80
2022-08-25T11:02:49.020Z,9.10
2022-08-25T11:03:49.009Z,8.60
2022-08-25T11:04:49.013Z,7.80
2022-08-25T11:05:48.987Z,8.10
2022-08-25T11:06:53.050Z,8.00
2022-08-25T11:07:49.961Z,8.70
2022-08-25T11:08:48.929Z,8.30
2022-08-25T11:09:49.326Z,7.90
2022-08-25T11:10:48.920Z,8.50
2022-08-25T11:11:48.938Z,8.90
2022-08-25T11:12:48.879Z,8.50
2022-08-25T11:13:49.878Z,7.80
2022-08-25T11:14:48.853Z,8.00
2022-08-25T11:16:06.636Z,7.70
2022-08-25T11:16:49.864Z,7.70
2022-08-25T11:17:50.156Z,7.30
2022-08-25T11:18:49.802Z,8.40
2022-08-25T11:19:48.776Z,7.20
2022-08-25T11:20:48.797Z,11.70
2022-08-25T11:21:48.756Z,7.50
2022-08-25T11:22:48.753Z,8.90
2022-08-25T11:23:49.726Z,7.20
2022-08-25T11:24:48.733Z,6.50
2022-08-25T11:25:48.724Z,7.20
2022-08-25T11:26:48.716Z,7.80
2022-08-25T11:27:48.690Z,7.10
2022-08-25T11:28:48.665Z,9.80
2022-08-25T11:29:48.647Z,8.40
2022-08-25T11:30:48.719Z,8.00
2022-08-25T11:31:52.999Z,7.70
2022-08-25T11:32:50.607Z,7.70
2022-08-25T11:33:48.608Z,7.20
2022-08-25T11:34:48.595Z,6.40
2022-08-25T11:35:48.594Z,6.90
2022-08-25T11:36:48.589Z,6.70
2022-08-25T11:37:48.566Z,7.20
2022-08-25T11:38:48.535Z,6.90
2022-08-25T11:39:48.557Z,9.30
2022-08-25T11:40:50.282Z,9.00
2022-08-25T11:41:48.500Z,6.60
2022-08-25T11:42:48.481Z,7.10
2022-08-25T11:43:48.469Z,6.70
2022-08-25T11:44:53.344Z,7.80
2022-08-25T11:45:54.196Z,7.60
2022-08-25T11:46:49.433Z,7.60
2022-08-25T11:47:48.420Z,7.40
2022-08-25T11:48:48.434Z,7.20
2022-08-25T11:49:49.396Z,7.70
2022-08-25T11:50:48.401Z,7.30
2022-08-25T11:51:48.420Z,7.40
2022-08-25T11:52:48.353Z,7.50
2022-08-25T11:53:48.341Z,6.90
2022-08-25T11:54:48.333Z,7.70
2022-08-25T11:55:48.315Z,7.10
2022-08-25T11:56:48.323Z,7.10
2022-08-25T11:57:51.609Z,7.70
2022-08-25T11:58:49.740Z,7.50
2022-08-25T11:59:48.254Z,6.70
2022-08-25T12:00:48.274Z,6.80
2022-08-25T12:01:48.235Z,7.50
2022-08-25T12:02:48.234Z,7.30
2022-08-25T12:03:48.233Z,7.10
2022-08-25T12:04:48.242Z,6.50
2022-08-25T12:05:48.238Z,7.10
2022-08-25T12:06:48.184Z,6.60
2022-08-25T12:07:48.157Z,7.20
2022-08-25T12:08:48.164Z,7.30
2022-08-25T12:09:48.138Z,7.50
2022-08-25T12:10:48.148Z,7.50
2022-08-25T12:11:48.127Z,8.80
2022-08-25T12:12:48.106Z,6.50
2022-08-25T12:13:48.099Z,6.70
2022-08-25T12:14:48.080Z,6.50
2022-08-25T12:15:48.059Z,6.90
2022-08-25T12:16:48.059Z,7.00
2022-08-25T12:17:48.047Z,6.00
2022-08-25T12:18:50.343Z,7.00
2022-08-25T12:19:47.999Z,5.90
2022-08-25T12:20:48.021Z,6.30
2022-08-25T12:21:47.990Z,7.10
2022-08-25T12:22:47.962Z,6.40
2022-08-25T12:23:52.834Z,6.70
2022-08-25T12:24:48.942Z,6.10
2022-08-25T12:25:47.942Z,6.30
2022-08-25T12:26:47.924Z,5.90
2022-08-25T12:27:47.914Z,6.10
2022-08-25T12:28:47.882Z,5.70
2022-08-25T12:29:47.865Z,6.30
2022-08-25T12:30:47.930Z,5.80
2022-08-25T12:31:47.860Z,5.90
2022-08-25T12:32:47.845Z,7.80
2022-08-25T12:33:47.827Z,7.80
2022-08-25T12:34:47.807Z,5.80
2022-08-25T12:35:47.829Z,7.20
2022-08-25T12:36:47.795Z,5.30
2022-08-25T12:37:47.777Z,6.10
2022-08-25T12:38:52.288Z,6.00
2022-08-25T12:39:47.769Z,5.90
2022-08-25T12:40:47.739Z,5.90
2022-08-25T12:41:48.769Z,6.50
2022-08-25T12:42:47.722Z,6.40
2022-08-25T12:43:47.687Z,7.80
2022-08-25T12:44:47.745Z,9.00
2022-08-25T12:45:47.738Z,6.40
2022-08-25T12:46:48.340Z,7.70
2022-08-25T12:47:47.658Z,7.00
2022-08-25T12:48:47.643Z,6.70
2022-08-25T12:49:47.616Z,6.90
2022-08-25T12:50:47.649Z,7.50
2022-08-25T12:51:48.508Z,8.60
2022-08-25T12:52:47.593Z,6.90
2022-08-25T12:53:47.571Z,7.30
2022-08-25T12:54:47.882Z,6.50
2022-08-25T12:55:47.562Z,9.60
2022-08-25T12:56:47.636Z,6.70
2022-08-25T12:57:47.533Z,7.20
2022-08-25T12:58:59.903Z,6.70
2022-08-25T12:59:48.853Z,6.30
2022-08-25T13:00:47.574Z,6.80
2022-08-25T13:01:48.562Z,6.30
2022-08-25T13:02:52.243Z,6.70
2022-08-25T13:03:48.651Z,7.70
2022-08-25T13:04:47.578Z,5.40
2022-08-25T13:05:47.615Z,8.10
2022-08-25T13:06:47.542Z,5.50
2022-08-25T13:07:47.546Z,7.60
2022-08-25T13:08:48.052Z,5.60
2022-08-25T13:09:47.445Z,6.40
2022-08-25T13:10:47.447Z,5.30
2022-08-25T13:11:48.097Z,6.50
2022-08-25T13:12:47.358Z,5.70
2022-08-25T13:13:47.456Z,5.90
2022-08-25T13:14:48.860Z,5.60
2022-08-25T13:15:47.399Z,8.30
2022-08-25T13:16:47.305Z,5.40
2022-08-25T13:17:47.381Z,4.60
2022-08-25T13:18:51.680Z,6.40
2022-08-25T13:19:48.316Z,5.40
2022-08-25T13:20:47.352Z,5.60
2022-08-25T13:21:47.231Z,5.90
2022-08-25T13:22:47.311Z,6.10
2022-08-25T13:23:47.322Z,5.30
2022-08-25T13:24:47.461Z,7.50
2022-08-25T13:25:47.257Z,6.80
2022-08-25T13:26:48.662Z,5.50
2022-08-25T13:27:47.254Z,5.50
2022-08-25T13:28:50.446Z,6.60
2022-08-25T13:29:47.275Z,5.60
2022-08-25T13:30:47.160Z,5.60
2022-08-25T13:31:47.117Z,5.20
2022-08-25T13:32:47.111Z,5.70
2022-08-25T13:33:47.076Z,6.30
2022-08-25T13:34:47.127Z,5.70
2022-08-25T13:35:47.798Z,6.80
2022-08-25T13:36:54.093Z,6.90
2022-08-25T13:37:48.036Z,8.20
2022-08-25T13:38:47.038Z,7.80
2022-08-25T13:39:56.322Z,6.20
2022-08-25T13:40:48.183Z,7.40
2022-08-25T13:41:46.999Z,5.60
2022-08-25T13:42:54.469Z,7.10
2022-08-25T13:44:57.386Z,8.60